createdAt,value
2018-10-11T00:01:50.460Z,74.20
2018-10-11T00:04:18.281Z,75.03
2018-10-11T00:06:46.084Z,72.60
2018-10-11T00:09:13.907Z,77.90
2018-10-11T00:11:41.708Z,77.50
2018-10-11T00:14:09.774Z,79.20
2018-10-11T00:16:38.033Z,80.27
2018-10-11T00:19:05.856Z,76.43
2018-10-11T00:21:33.676Z,78.23
2018-10-11T00:24:01.493Z,80.03
2018-10-11T00:26:29.328Z,82.20
2018-10-11T00:28:57.168Z,79.87
2018-10-11T00:31:25.083Z,86.03
2018-10-11T00:33:52.887Z,84.10
2018-10-11T00:36:20.704Z,85.13
2018-10-11T00:38:48.509Z,74.53
2018-10-11T00:41:16.335Z,86.77
2018-10-11T00:43:44.193Z,76.73
2018-10-11T00:46:12.136Z,81.53
2018-10-11T00:48:41.956Z,81.30
2018-10-11T00:51:09.832Z,80.73
2018-10-11T00:53:37.709Z,83.33
2018-10-11T00:56:05.570Z,82.93
2018-10-11T00:58:33.442Z,81.87
2018-10-11T01:01:01.292Z,90.20
2018-10-11T01:03:29.188Z,81.80
2018-10-11T01:05:57.035Z,85.07
2018-10-11T01:08:24.919Z,86.70
2018-10-11T01:10:52.860Z,82.63
2018-10-11T01:13:20.744Z,90.20
2018-10-11T01:15:48.620Z,85.17
2018-10-11T01:18:16.464Z,86.07
2018-10-11T01:20:44.344Z,85.13
2018-10-11T01:23:12.189Z,78.90
2018-10-11T01:25:40.100Z,87.90
2018-10-11T01:28:07.947Z,79.73
2018-10-11T01:30:35.824Z,87.77
2018-10-11T01:33:03.689Z,81.13
2018-10-11T01:35:31.592Z,84.37
2018-10-11T01:37:59.652Z,82.80
2018-10-11T01:40:27.546Z,85.30
2018-10-11T01:42:59.959Z,83.80
2018-10-11T01:45:27.864Z,84.40
2018-10-11T01:47:55.848Z,84.07
2018-10-11T01:50:23.748Z,86.50
2018-10-11T01:52:51.680Z,88.77
2018-10-11T01:55:19.524Z,82.20
2018-10-11T01:57:47.399Z,80.10
2018-10-11T02:00:15.231Z,79.33
2018-10-11T02:02:43.128Z,80.63
2018-10-11T02:05:11.121Z,80.60
2018-10-11T02:07:39.976Z,84.87
2018-10-11T02:10:07.860Z,88.30
2018-10-11T02:12:35.684Z,78.57
2018-10-11T02:15:03.576Z,79.80
2018-10-11T02:17:31.416Z,80.17
2018-10-11T02:19:59.304Z,80.53
2018-10-11T02:22:27.148Z,88.90
2018-10-11T02:24:55.044Z,81.10
2018-10-11T02:27:22.921Z,81.67
2018-10-11T02:29:50.788Z,87.40
2018-10-11T02:32:18.639Z,86.17
2018-10-11T02:34:46.488Z,88.63
2018-10-11T02:37:14.372Z,80.77
2018-10-11T02:39:42.244Z,82.27
2018-10-11T02:42:11.109Z,85.23
2018-10-11T02:44:38.993Z,78.90
2018-10-11T02:47:06.844Z,81.77
2018-10-11T02:49:34.762Z,85.70
2018-10-11T02:52:02.577Z,88.73
2018-10-11T02:54:30.463Z,86.97
2018-10-11T02:57:01.369Z,91.97
2018-10-11T02:59:31.759Z,88.53
2018-10-11T03:02:00.315Z,92.63
2018-10-11T03:04:28.587Z,84.33
2018-10-11T03:06:56.633Z,84.60
2018-10-11T03:09:24.749Z,84.90
2018-10-11T03:11:52.580Z,86.80
2018-10-11T03:14:20.473Z,89.70
2018-10-11T03:16:48.319Z,81.07
2018-10-11T03:19:16.172Z,85.50
2018-10-11T03:21:44.078Z,80.63
2018-10-11T03:24:12.178Z,78.90
2018-10-11T03:26:40.100Z,92.43
2018-10-11T03:29:07.938Z,86.70
2018-10-11T03:31:35.840Z,88.47
2018-10-11T03:34:03.694Z,86.77
2018-10-11T03:36:31.572Z,82.70
2018-10-11T03:38:59.444Z,82.93
2018-10-11T03:41:27.285Z,89.13
2018-10-11T03:43:55.156Z,84.40
2018-10-11T03:46:23.089Z,82.90
2018-10-11T03:48:50.905Z,83.80
2018-10-11T03:51:18.769Z,90.10
2018-10-11T03:53:46.664Z,86.90
2018-10-11T03:57:17.737Z,99.07
2018-10-11T03:59:45.645Z,84.93
2018-10-11T04:02:13.504Z,89.17
2018-10-11T04:04:41.360Z,80.60
2018-10-11T04:07:09.248Z,87.20
2018-10-11T04:09:37.104Z,79.40
2018-10-11T04:12:04.974Z,81.27
2018-10-11T04:14:32.832Z,90.53
2018-10-11T04:17:00.725Z,91.70
2018-10-11T04:19:28.575Z,88.23
2018-10-11T04:21:56.423Z,83.47
2018-10-11T04:24:24.361Z,86.03
2018-10-11T04:26:53.191Z,88.97
2018-10-11T04:29:21.076Z,86.77
2018-10-11T04:31:49.948Z,83.67
2018-10-11T04:34:17.825Z,87.73
2018-10-11T04:36:45.688Z,86.73
2018-10-11T04:39:13.584Z,89.37
2018-10-11T04:41:41.884Z,88.40
2018-10-11T04:44:10.693Z,87.03
2018-10-11T04:46:38.596Z,87.20
2018-10-11T04:49:06.444Z,94.80
2018-10-11T04:51:34.344Z,95.80
2018-10-11T04:54:02.180Z,89.93
2018-10-11T04:56:30.080Z,93.93
2018-10-11T04:58:58.944Z,94.43
2018-10-11T05:01:27.516Z,88.03
2018-10-11T05:03:55.420Z,97.20
2018-10-11T05:06:23.276Z,89.30
2018-10-11T05:08:51.153Z,88.07
2018-10-11T05:11:19.002Z,85.70
2018-10-11T05:13:48.188Z,91.77
2018-10-11T05:16:16.724Z,90.33
2018-10-11T05:18:45.901Z,84.87
2018-10-11T05:21:13.752Z,88.17
2018-10-11T05:23:42.801Z,91.03
2018-10-11T05:26:11.002Z,91.20
2018-10-11T05:28:38.877Z,89.10
2018-10-11T05:31:06.784Z,91.87
2018-10-11T05:33:34.752Z,84.77
2018-10-11T05:36:02.575Z,83.87
2018-10-11T05:38:31.500Z,90.03
2018-10-11T05:40:59.370Z,96.90
2018-10-11T05:43:27.449Z,88.00
2018-10-11T05:45:56.188Z,86.73
2018-10-11T05:48:24.988Z,83.40
2018-10-11T05:50:53.096Z,88.83
2018-10-11T05:53:20.948Z,88.70
2018-10-11T05:55:49.118Z,92.40
2018-10-11T05:58:16.985Z,86.40
2018-10-11T06:00:44.844Z,85.67
2018-10-11T06:03:12.739Z,88.33
2018-10-11T06:05:40.561Z,93.20
2018-10-11T06:08:08.481Z,91.00
2018-10-11T06:10:36.964Z,81.07
2018-10-11T06:13:05.328Z,86.30
2018-10-11T06:15:33.202Z,86.03
2018-10-11T06:18:01.036Z,87.70
2018-10-11T06:20:28.926Z,85.07
2018-10-11T06:22:56.780Z,99.07
2018-10-11T06:25:24.660Z,83.80
2018-10-11T06:27:52.493Z,77.80
2018-10-11T06:30:20.403Z,82.33
2018-10-11T06:32:48.248Z,77.70
2018-10-11T06:35:16.109Z,82.17
2018-10-11T06:37:44.166Z,73.57
2018-10-11T06:40:12.045Z,77.53
2018-10-11T06:42:39.978Z,78.50
2018-10-11T06:45:08.508Z,72.23
2018-10-11T06:47:36.353Z,76.63
2018-10-11T06:50:04.877Z,81.07
2018-10-11T06:52:32.724Z,81.23
2018-10-11T06:55:00.607Z,78.33
2018-10-11T06:57:28.451Z,72.10
2018-10-11T06:59:56.311Z,72.40
2018-10-11T07:02:24.200Z,67.50
2018-10-11T07:04:52.044Z,73.83
2018-10-11T07:07:20.001Z,79.80
2018-10-11T07:09:47.788Z,69.00
2018-10-11T07:12:15.625Z,64.30
2018-10-11T07:14:43.495Z,68.50
2018-10-11T07:17:11.368Z,69.70
2018-10-11T07:19:41.308Z,64.90
2018-10-11T07:22:09.167Z,66.53
2018-10-11T07:24:37.052Z,61.83
2018-10-11T07:27:05.133Z,65.10
2018-10-11T07:29:32.976Z,58.77
2018-10-11T07:32:00.828Z,66.30
2018-10-11T07:34:28.759Z,68.43
2018-10-11T07:36:56.560Z,57.10
2018-10-11T07:39:25.494Z,65.90
2018-10-11T07:41:53.392Z,58.63
2018-10-11T07:44:22.320Z,59.67
2018-10-11T07:46:51.168Z,56.67
2018-10-11T07:49:19.093Z,54.47
2018-10-11T07:51:46.981Z,55.60
2018-10-11T07:54:14.892Z,51.90
2018-10-11T07:56:42.773Z,53.10
2018-10-11T07:59:10.651Z,49.90
2018-10-11T08:01:38.587Z,52.80
2018-10-11T08:04:06.412Z,52.87
2018-10-11T08:06:34.348Z,52.80
2018-10-11T08:09:02.239Z,48.23
2018-10-11T08:11:30.212Z,52.30
2018-10-11T08:13:57.960Z,47.70
2018-10-11T08:16:25.845Z,52.73
2018-10-11T08:18:53.763Z,47.60
2018-10-11T08:21:21.525Z,43.33
2018-10-11T08:23:50.463Z,44.77
2018-10-11T08:26:18.647Z,43.47
2018-10-11T08:28:46.175Z,45.97
2018-10-11T08:31:14.040Z,46.53
2018-10-11T08:33:41.885Z,50.60
2018-10-11T08:36:09.852Z,41.03
2018-10-11T08:38:37.811Z,41.77
2018-10-11T08:41:05.768Z,40.40
2018-10-11T08:43:33.738Z,43.37
2018-10-11T08:46:01.594Z,41.17
2018-10-11T08:48:29.523Z,39.80
2018-10-11T08:50:57.443Z,39.03
2018-10-11T08:53:25.270Z,41.47
2018-10-11T08:55:53.132Z,39.23
2018-10-11T08:58:20.983Z,36.40
2018-10-11T09:00:48.820Z,37.07
2018-10-11T09:03:16.992Z,35.43
2018-10-11T09:05:44.850Z,36.17
2018-10-11T09:08:12.738Z,39.47
2018-10-11T09:10:40.606Z,33.53
2018-10-11T09:13:08.480Z,34.47
2018-10-11T09:15:36.363Z,32.80
2018-10-11T09:18:04.213Z,30.87
2018-10-11T09:20:32.095Z,32.83
2018-10-11T09:22:59.945Z,35.40
2018-10-11T09:25:27.868Z,30.97
2018-10-11T09:27:55.756Z,33.67
2018-10-11T09:30:23.765Z,31.63
2018-10-11T09:32:51.644Z,33.67
2018-10-11T09:35:19.564Z,28.97
2018-10-11T09:37:47.473Z,26.80
2018-10-11T09:40:15.346Z,32.23
2018-10-11T09:42:43.224Z,40.13
2018-10-11T09:45:11.033Z,33.93
2018-10-11T09:47:38.944Z,31.25
2018-10-11T09:50:06.840Z,31.00
2018-10-11T09:52:34.668Z,32.57
2018-10-11T09:55:02.557Z,29.07
2018-10-11T09:57:35.344Z,28.47
2018-10-11T10:00:04.461Z,28.43
2018-10-11T10:02:32.617Z,27.67
2018-10-11T10:05:01.962Z,29.93
2018-10-11T10:07:29.888Z,27.17
2018-10-11T10:09:57.870Z,30.70
2018-10-11T10:12:25.712Z,33.23
2018-10-11T10:14:53.692Z,37.47
2018-10-11T10:17:21.643Z,26.63
2018-10-11T10:19:49.509Z,30.70
2018-10-11T10:22:17.345Z,32.50
2018-10-11T10:24:45.240Z,26.87
2018-10-11T10:27:13.142Z,30.30
2018-10-11T10:29:40.969Z,33.40
2018-10-11T10:32:08.927Z,37.53
2018-10-11T10:34:36.792Z,33.20
2018-10-11T10:37:04.731Z,28.57
2018-10-11T10:39:32.603Z,26.23
2018-10-11T10:42:00.512Z,25.40
2018-10-11T10:44:28.347Z,28.50
2018-10-11T10:46:56.236Z,29.40
2018-10-11T10:49:24.096Z,26.80
2018-10-11T10:51:51.992Z,29.67
2018-10-11T10:54:20.953Z,30.90
2018-10-11T10:56:49.099Z,43.57
2018-10-11T10:59:16.972Z,29.17
2018-10-11T11:01:44.872Z,33.77
2018-10-11T11:04:12.715Z,32.40
2018-10-11T11:06:40.610Z,32.73
2018-10-11T11:09:08.992Z,33.37
2018-10-11T11:11:36.904Z,29.57
2018-10-11T11:14:04.807Z,27.27
2018-10-11T11:16:32.656Z,25.87
2018-10-11T11:19:00.594Z,27.83
2018-10-11T11:21:28.755Z,26.37
2018-10-11T11:23:56.614Z,32.00
2018-10-11T11:26:24.467Z,28.93
2018-10-11T11:28:52.368Z,24.80
2018-10-11T11:31:20.337Z,24.40
2018-10-11T11:33:48.320Z,30.50
2018-10-11T11:36:16.376Z,26.47
2018-10-11T11:38:44.297Z,32.30
2018-10-11T11:43:39.223Z,22.70
2018-10-11T11:46:07.096Z,31.07
2018-10-11T11:48:34.976Z,30.30
2018-10-11T11:51:02.828Z,22.00
2018-10-11T11:53:30.684Z,22.47
2018-10-11T11:55:58.569Z,26.50
2018-10-11T12:03:20.610Z,27.20
2018-10-11T12:10:42.617Z,21.00
2018-10-11T12:18:07.678Z,23.50
2018-10-11T12:25:32.373Z,20.97
2018-10-11T12:28:00.308Z,21.90
2018-10-11T12:30:28.200Z,26.00
2018-10-11T12:35:23.937Z,20.30
2018-10-11T13:22:01.526Z,18.13
2018-10-11T16:43:05.324Z,44.15
2018-10-11T16:45:33.184Z,28.70
2018-10-11T16:48:01.056Z,28.90
2018-10-11T16:50:28.884Z,27.20
2018-10-11T16:52:56.727Z,27.87
2018-10-11T16:55:24.540Z,24.45
2018-10-11T16:57:52.409Z,28.10
2018-10-11T17:00:20.248Z,32.15
2018-10-11T17:02:48.049Z,31.83
2018-10-11T17:05:15.896Z,40.37
2018-10-11T17:07:43.744Z,40.33
2018-10-11T17:10:11.600Z,42.43
2018-10-11T17:12:39.444Z,33.23
2018-10-11T17:15:07.277Z,39.00
2018-10-11T17:17:35.100Z,37.93
2018-10-11T17:20:02.928Z,36.20
2018-10-11T17:22:30.780Z,38.93
2018-10-11T17:24:58.592Z,32.63
2018-10-11T17:27:26.432Z,41.20
2018-10-11T17:29:54.256Z,36.50
2018-10-11T17:32:22.301Z,48.73
2018-10-11T17:34:50.196Z,47.40
2018-10-11T17:37:18.072Z,42.77
2018-10-11T17:39:45.942Z,48.43
2018-10-11T17:42:13.866Z,39.03
2018-10-11T17:44:41.683Z,35.27
2018-10-11T17:47:09.524Z,45.77
2018-10-11T17:49:37.454Z,52.10
2018-10-11T17:52:05.278Z,47.23
2018-10-11T17:54:33.153Z,43.33
2018-10-11T17:57:00.985Z,47.17
2018-10-11T17:59:28.818Z,45.13
2018-10-11T18:01:56.664Z,47.90
2018-10-11T18:04:24.476Z,42.27
2018-10-11T18:06:52.420Z,42.07
2018-10-11T18:09:20.244Z,37.87
2018-10-11T18:11:48.057Z,40.60
2018-10-11T18:14:15.903Z,35.53
2018-10-11T18:16:43.736Z,44.20
2018-10-11T18:19:11.581Z,37.20
2018-10-11T18:21:39.443Z,35.97
2018-10-11T18:24:07.301Z,41.67
2018-10-11T18:26:35.140Z,39.87
2018-10-11T18:29:03.060Z,41.23
2018-10-11T18:31:30.841Z,33.13
2018-10-11T18:33:58.660Z,38.43
2018-10-11T18:36:26.491Z,37.10
2018-10-11T18:38:54.352Z,33.97
2018-10-11T18:41:22.168Z,33.60
2018-10-11T18:43:50.000Z,35.63
2018-10-11T18:46:17.809Z,32.80
2018-10-11T18:48:45.649Z,32.60
2018-10-11T18:51:13.508Z,34.03
2018-10-11T18:53:41.344Z,35.75
2018-10-11T18:56:09.149Z,39.80
2018-10-11T18:58:36.979Z,31.55
2018-10-11T19:01:04.793Z,31.85
2018-10-11T19:03:32.648Z,35.03
2018-10-11T19:06:00.452Z,32.70
2018-10-11T19:08:28.834Z,30.20
2018-10-11T19:10:56.736Z,37.10
2018-10-11T19:13:24.573Z,33.23
2018-10-11T19:15:52.408Z,39.73
2018-10-11T19:18:20.244Z,35.00
2018-10-11T19:20:48.090Z,34.87
2018-10-11T19:23:15.912Z,36.63
2018-10-11T19:25:43.740Z,40.30
2018-10-11T19:28:11.568Z,35.83
2018-10-11T19:30:39.396Z,43.93
2018-10-11T19:33:07.236Z,39.80
2018-10-11T19:35:35.055Z,33.57
2018-10-11T19:38:02.952Z,39.00
2018-10-11T19:40:30.784Z,35.45
2018-10-11T19:42:58.628Z,37.90
2018-10-11T19:45:26.440Z,39.70
2018-10-11T19:47:54.260Z,35.70
2018-10-11T19:50:22.103Z,36.13
2018-10-11T19:52:49.953Z,36.57
2018-10-11T19:55:17.760Z,36.23
2018-10-11T19:57:45.601Z,34.37
2018-10-11T20:00:13.425Z,35.70
2018-10-11T20:02:41.238Z,37.10
2018-10-11T20:05:09.093Z,35.60
2018-10-11T20:07:36.894Z,34.10
2018-10-11T20:10:04.840Z,32.93
2018-10-11T20:12:32.724Z,32.40
2018-10-11T20:15:01.017Z,31.50
2018-10-11T20:17:28.808Z,36.57
2018-10-11T20:19:56.645Z,40.43
2018-10-11T20:22:24.716Z,37.03
2018-10-11T20:24:52.606Z,36.63
2018-10-11T20:27:20.421Z,35.37
2018-10-11T20:29:48.253Z,32.80
2018-10-11T20:32:16.090Z,30.37
2018-10-11T20:34:43.955Z,34.00
2018-10-11T20:37:11.798Z,29.53
2018-10-11T20:39:39.611Z,29.43
2018-10-11T20:42:07.548Z,33.50
2018-10-11T20:44:35.362Z,34.90
2018-10-11T20:47:03.207Z,36.17
2018-10-11T20:49:31.080Z,29.37
2018-10-11T20:51:58.944Z,34.97
2018-10-11T20:54:26.787Z,35.67
2018-10-11T20:56:54.638Z,30.57
2018-10-11T20:59:22.837Z,25.60
2018-10-11T21:01:50.654Z,28.83
2018-10-11T21:04:18.495Z,33.63
2018-10-11T21:06:46.349Z,27.83
2018-10-11T21:09:14.268Z,28.13
2018-10-11T21:11:43.152Z,28.87
2018-10-11T21:14:14.552Z,27.77
2018-10-11T21:16:48.251Z,29.57
2018-10-11T21:19:17.148Z,31.50
2018-10-11T21:21:44.982Z,25.60
2018-10-11T21:24:12.816Z,28.90
2018-10-11T21:26:40.648Z,28.43
2018-10-11T21:29:08.492Z,29.30
2018-10-11T21:31:36.328Z,28.47
2018-10-11T21:34:05.145Z,29.60
2018-10-11T21:36:32.991Z,28.73
2018-10-11T21:39:03.620Z,33.37
2018-10-11T21:41:31.504Z,29.60
2018-10-11T21:43:59.304Z,30.50
2018-10-11T21:46:27.168Z,26.40
2018-10-11T21:48:54.944Z,25.53
2018-10-11T21:51:22.747Z,22.47
2018-10-11T21:53:50.597Z,26.53
2018-10-11T21:56:18.420Z,27.13
2018-10-11T21:58:46.224Z,27.13
2018-10-11T22:01:20.619Z,36.57
2018-10-11T22:03:48.473Z,30.90
2018-10-11T22:06:16.312Z,29.97
2018-10-11T22:08:44.628Z,26.53
2018-10-11T22:11:12.504Z,30.13
2018-10-11T22:13:40.397Z,28.60
2018-10-11T22:16:08.606Z,25.90
2018-10-11T22:18:36.455Z,24.57
2018-10-11T22:21:04.352Z,27.90
2018-10-11T22:23:32.230Z,25.87
2018-10-11T22:26:00.093Z,25.80
2018-10-11T22:28:27.959Z,23.07
2018-10-11T22:30:55.816Z,24.60
2018-10-11T22:33:24.400Z,24.83
2018-10-11T22:35:52.245Z,26.10
2018-10-11T22:38:20.132Z,27.43
2018-10-11T22:40:48.017Z,27.60
2018-10-11T22:43:15.888Z,25.03
2018-10-11T22:45:43.741Z,25.03
2018-10-11T22:48:11.628Z,25.63
2018-10-11T22:50:39.476Z,28.70
2018-10-11T22:53:07.360Z,26.63
2018-10-11T22:55:35.204Z,29.90
2018-10-11T22:58:03.099Z,26.20
2018-10-11T23:00:30.966Z,27.67
2018-10-11T23:02:58.858Z,29.13
2018-10-11T23:05:26.769Z,27.73
2018-10-11T23:07:54.565Z,28.27
2018-10-11T23:10:22.787Z,28.73
2018-10-11T23:12:50.589Z,23.67
2018-10-11T23:15:18.436Z,27.60
2018-10-11T23:17:46.264Z,27.00
2018-10-11T23:20:14.122Z,32.03
2018-10-11T23:22:42.532Z,30.10
2018-10-11T23:25:10.988Z,27.13
2018-10-11T23:27:39.337Z,27.90
2018-10-11T23:30:07.493Z,25.87
2018-10-11T23:32:35.288Z,26.70
2018-10-11T23:35:03.116Z,27.80
2018-10-11T23:37:30.959Z,29.23
2018-10-11T23:39:58.801Z,28.07
2018-10-11T23:42:26.600Z,30.87
2018-10-11T23:44:54.520Z,31.43
2018-10-11T23:47:22.328Z,32.80
2018-10-11T23:49:50.145Z,25.77
2018-10-11T23:52:17.966Z,27.63
2018-10-11T23:54:45.791Z,27.00
2018-10-11T23:57:13.623Z,28.23
2018-10-11T23:59:41.460Z,30.40
